Volk, WI

9:26 PM CDT on August 18, 2017 (GMT -0500)
Volk

Weather History for KVOK - August, 2013

Change the Weather History Date:

Thursday, August 29, 2013

  Actual Average Record
Temperature  
Mean Temperature 74 °F -  
Max Temperature 89 °F 76 °F 89 °F (2010)
Min Temperature 58 °F 57 °F 44 °F (2011)
Cooling Degree Days 8    
Growing Degree Days 24 (Base 50)    
Moisture  
Dew Point 64 °F    
Average Humidity 92    
Maximum Humidity 100    
Minimum Humidity 55    
Precipitation  
Precipitation 0.00 in - - ()
Sea Level Pressure  
Sea Level Pressure 30.05 in    
Wind  
Wind Speed 2 mph (SE)    
Max Wind Speed 12 mph    
Max Gust Speed -    
Visibility 4 miles    
Events Fog    
Averages and records for this station are not official NWS values.
T = Trace of Precipitation, MM = Missing Value Source: NWS Daily Summary

Daily Weather History Graph

Daily Weather History Graph

Search for Another Location

Airport or City:

Trip Planner

Search our weather history database for the weather conditions in past years. The results will help you decide how hot, cold, wet, or windy it might be!

Date:

Astronomy

Aug. 29, 2013 Rise Set
Actual Time 6:21 AM CDT 7:41 PM CDT
Civil Twilight 5:51 AM CDT 8:11 PM CDT
Nautical Twilight 5:15 AM CDT 8:47 PM CDT
Astronomical Twilight 4:37 AM CDT 9:25 PM CDT
Moon 12:06 AM CDT (8/29) 3:16 PM CDT (8/29)
Length of Visible Light 14h 20m
Length of Day
13h 20m
Last Quarter, 38% of the Moon is Illuminated
Aug 29
Last Quarter
Sep 5
New
Sep 12
First Quarter
Sep 19
Full
Sep 26
Last Quarter

Hourly Weather History & Observations

Time (CDT) Temp. Heat Index Dew Point Humidity Pressure Visibility Wind Dir Wind Speed Gust Speed Precip Events Conditions
12:58 AM 67.5 °F - 66.6 °F 97% 30.07 in 10.0 mi East 1.2 mph - N/A   Clear
1:03 AM 66.2 °F - 66.2 °F 100% 30.07 in 9.0 mi SE 1.2 mph - N/A   Clear
1:18 AM 66.2 °F - 66.2 °F 100% 30.07 in 1.5 mi East 3.5 mph - N/A   Clear
1:23 AM 64.4 °F - 64.4 °F 100% 30.07 in 0.5 mi East 3.5 mph - N/A Fog Fog
1:28 AM 62.6 °F - 62.6 °F 100% 30.07 in 0.2 mi East 2.3 mph - N/A Fog Fog
1:43 AM 62.6 °F - 62.6 °F 100% 30.06 in 0.5 mi ESE 2.3 mph - N/A Fog Fog
1:48 AM 62.6 °F - 62.6 °F 100% 30.06 in 3.0 mi ESE 2.3 mph - N/A   Clear
1:53 AM 62.6 °F - 62.6 °F 100% 30.06 in 2.5 mi East 2.3 mph - N/A   Clear
1:58 AM 63.7 °F - 63.5 °F 99% 30.06 in 2.0 mi East 2.3 mph - N/A   Clear
2:03 AM 64.4 °F - 64.4 °F 100% 30.06 in 0.8 mi ESE 2.3 mph - N/A   Clear
2:08 AM 64.4 °F - 64.4 °F 100% 30.06 in 0.5 mi Calm Calm - N/A Fog Fog
2:18 AM 64.4 °F - 64.4 °F 100% 30.06 in 2.5 mi Calm Calm - N/A   Clear
2:23 AM 64.4 °F - 64.4 °F 100% 30.06 in 2.0 mi Calm Calm - N/A   Clear
2:28 AM 62.6 °F - 62.6 °F 100% 30.06 in 0.5 mi Calm Calm - N/A Fog Fog
2:33 AM 62.6 °F - 62.6 °F 100% 30.06 in 0.2 mi Calm Calm - N/A Fog Fog
2:43 AM 60.8 °F - 60.8 °F 100% 30.06 in 0.5 mi Calm Calm - N/A Fog Fog
2:48 AM 60.8 °F - 60.8 °F 100% 30.06 in 0.8 mi Calm Calm - N/A   Clear
2:53 AM 60.8 °F - 60.8 °F 100% 30.06 in 1.8 mi Calm Calm - N/A   Clear
2:58 AM 60.8 °F - 60.8 °F 100% 30.06 in 1.2 mi Calm Calm - N/A   Clear
3:03 AM 60.8 °F - 60.8 °F 100% 30.06 in 0.5 mi NNE 2.3 mph - N/A Fog Fog
3:08 AM 59.0 °F - 59.0 °F 100% 30.06 in 0.5 mi Calm Calm - N/A Fog Fog
3:23 AM 60.8 °F - 60.8 °F 100% 30.06 in 2.5 mi Calm Calm - N/A   Clear
3:28 AM 60.8 °F - 60.8 °F 100% 30.06 in 7.0 mi Calm Calm - N/A   Clear
3:33 AM 60.8 °F - 60.8 °F 100% 30.06 in 0.8 mi Calm Calm - N/A   Clear
3:38 AM 59.0 °F - 59.0 °F 100% 30.07 in 0.2 mi Calm Calm - N/A Fog Fog
3:43 AM 59.0 °F - 59.0 °F 100% 30.06 in 0.2 mi Calm Calm - N/A Fog Fog
3:48 AM 59.0 °F - 59.0 °F 100% 30.06 in 0.2 mi Calm Calm - N/A Fog Fog
3:53 AM 59.0 °F - 59.0 °F 100% 30.06 in 0.5 mi Calm Calm - N/A Fog Fog
3:58 AM 60.8 °F - 60.8 °F 100% 30.06 in 0.5 mi Calm Calm - N/A Fog Fog
4:03 AM 60.8 °F - 60.8 °F 100% 30.06 in 0.2 mi Calm Calm - N/A Fog Fog
4:08 AM 59.0 °F - 59.0 °F 100% 30.06 in 0.5 mi Calm Calm - N/A Fog Fog
4:13 AM 59.0 °F - 59.0 °F 100% 30.06 in 1.0 mi Calm Calm - N/A   Clear
4:18 AM 59.0 °F - 59.0 °F 100% 30.06 in 1.0 mi Calm Calm - N/A   Clear
4:23 AM 59.0 °F - 59.0 °F 100% 30.06 in 0.2 mi Calm Calm - N/A Fog Fog
4:50 AM 59.0 °F - 59.0 °F 100% 30.06 in 0.2 mi Calm Calm - N/A Fog Fog
4:58 AM 58.5 °F - 58.5 °F 100% 30.06 in 0.2 mi East 2.3 mph - N/A Fog Fog
5:23 AM 59.0 °F - 59.0 °F 100% 30.07 in 0.5 mi Calm Calm - N/A Fog Fog
5:28 AM 59.0 °F - 59.0 °F 100% 30.07 in 0.8 mi East 1.2 mph - N/A   Clear
5:33 AM 60.8 °F - 60.8 °F 100% 30.07 in 1.2 mi ESE 3.5 mph - N/A   Clear
5:38 AM 59.0 °F - 59.0 °F 100% 30.07 in 0.5 mi ESE 3.5 mph - N/A Fog Fog
5:43 AM 59.0 °F - 59.0 °F 100% 30.07 in 0.2 mi SE 2.3 mph - N/A Fog Fog
5:53 AM 59.0 °F - 59.0 °F 100% 30.06 in 0.5 mi SSE 3.5 mph - N/A Fog Fog
5:58 AM 59.0 °F - 59.0 °F 100% 30.06 in 1.2 mi SSE 3.5 mph - N/A   Clear
6:03 AM 59.0 °F - 59.0 °F 100% 30.07 in 1.0 mi SE 3.5 mph - N/A   Clear
6:08 AM 59.0 °F - 59.0 °F 100% 30.07 in 0.2 mi SE 3.5 mph - N/A Fog Fog
6:13 AM 59.0 °F - 59.0 °F 100% 30.07 in 0.2 mi SE 3.5 mph - N/A Fog Fog
6:21 AM 59.0 °F - 59.0 °F 100% 30.07 in 0.2 mi ESE 2.3 mph - N/A Fog Fog
6:58 AM 60.8 °F - 60.8 °F 100% 30.09 in 0.2 mi Calm Calm - N/A Fog Fog
7:42 AM 62.6 °F - 62.6 °F 100% 30.08 in 0.8 mi Calm Calm - N/A   Partly Cloudy
8:14 AM 66.2 °F - 66.2 °F 100% 30.08 in 7.0 mi ENE 3.5 mph - N/A   Scattered Clouds
9:04 AM 69.8 °F - 69.8 °F 100% 30.08 in 10.0 mi ESE 4.6 mph - N/A   Mostly Cloudy
9:22 AM 73.4 °F - 73.4 °F 100% 30.08 in 10.0 mi SSE 8.1 mph - N/A   Overcast
9:58 AM 77.0 °F - 69.8 °F 78% 30.08 in 10.0 mi SSE 6.9 mph - N/A   Mostly Cloudy
10:58 AM 82.4 °F 85.4 °F 68.0 °F 62% 30.07 in 10.0 mi SSE 9.2 mph - N/A   Mostly Cloudy
11:58 AM 84.2 °F 88.4 °F 69.8 °F 62% 30.05 in 10.0 mi South 5.8 mph - N/A   Scattered Clouds
12:58 PM 86.0 °F 91.8 °F 71.6 °F 62% 30.04 in 10.0 mi South 6.9 mph - N/A   Scattered Clouds
1:58 PM 87.8 °F 93.8 °F 71.6 °F 58% 30.01 in 10.0 mi South 11.5 mph - N/A   Scattered Clouds
2:58 PM 87.8 °F 93.8 °F 71.6 °F 58% 30.02 in 10.0 mi SSW 6.9 mph - N/A   Scattered Clouds
2:59 PM 87.8 °F 93.8 °F 71.6 °F 58% 30.01 in 10.0 mi SW 6.9 mph - N/A   Light Drizzle
3:05 PM 89.6 °F 96.2 °F 71.6 °F 55% 30.01 in 10.0 mi SSE 10.4 mph - N/A   Partly Cloudy
3:58 PM 89.4 °F 96.8 °F 72.3 °F 57% 29.99 in 10.0 mi South 10.4 mph - 0.00 in   Partly Cloudy
4:58 PM 89.2 °F 96.9 °F 72.9 °F 58% 29.97 in 10.0 mi South 10.4 mph - N/A   Clear
5:58 PM 87.4 °F 94.4 °F 72.3 °F 61% 29.97 in 10.0 mi South 8.1 mph - N/A   Clear
6:58 PM 85.3 °F 91.8 °F 72.7 °F 66% 29.96 in 10.0 mi South 5.8 mph - N/A   Clear
7:58 PM 81.5 °F 86.1 °F 72.1 °F 73% 29.95 in 10.0 mi SSE 2.3 mph - N/A   Clear
8:58 PM 78.3 °F - 71.2 °F 79% 29.96 in 10.0 mi SSE 4.6 mph - N/A   Clear
9:58 PM 76.5 °F - 70.7 °F 82% 29.96 in 10.0 mi SSE 5.8 mph - N/A   Clear
10:58 PM 76.3 °F - 68.7 °F 77% 29.94 in 10.0 mi South 5.8 mph - N/A   Clear
11:58 PM 75.6 °F - 68.7 °F 79% 29.94 in 10.0 mi South 5.8 mph - N/A   Scattered Clouds